| Date | Time | Temp. (oF) | Dew Point (oF) | Rel. Hum. (%) | Press. (in.) | Wind Dir. | Wind Speed (mph) | Hourly Rainfall (in.) |
|
|---|---|---|---|---|---|---|---|---|---|
| 1 | 02/14 | 00:00 | 30 | 24 | 79 | 29.79 | NNW | 12 | 0.00 |
| 2 | 02/13 | 23:00 | 31 | 25 | 80 | 29.78 | NNW | 10 | 0.00 |
| 3 | 02/13 | 22:00 | 33 | 28 | 82 | 29.75 | NNW | 8 | 0.00 |
| 4 | 02/13 | 21:00 | 34 | 32 | 95 | 29.70 | NW | 9 | 0.00 |
| 5 | 02/13 | 20:00 | 35 | 34 | 97 | 29.66 | NNW | 6 | 0.00 |
| 6 | 02/13 | 19:00 | 35 | 34 | 97 | 29.64 | WNW | 7 | 0.00 |
| 7 | 02/13 | 18:00 | 35 | 35 | 100 | 29.62 | WNW | 6 | 0.00 |
| 8 | 02/13 | 17:00 | 35 | 35 | 100 | 29.58 | N | 4 | 0.01 |
| 9 | 02/13 | 16:00 | 35 | 35 | 100 | 29.57 | WNW | 5 | 0.02 |
| 10 | 02/13 | 15:00 | 34 | 33 | 100 | 29.54 | NNW | 8 | 0.01 |
| 11 | 02/13 | 14:00 | 34 | 33 | 100 | 29.52 | NW | 5 | 0.02 |
| 12 | 02/13 | 13:00 | 34 | 33 | 100 | 29.53 | NNW | 4 | 0.06 |
| 13 | 02/13 | 12:00 | 33 | 32 | 100 | 29.57 | NW | 3 | 0.11 |
| 14 | 02/13 | 11:00 | 33 | 32 | 100 | 29.62 | NW | 3 | 0.28 |
| 15 | 02/13 | 10:00 | 32 | 32 | 100 | 29.60 | WNW | 4 | 0.19 |
| 16 | 02/13 | 09:00 | 32 | 32 | 100 | 29.63 | SW | 0 | 0.14 |
| 17 | 02/13 | 08:00 | 32 | 32 | 100 | 29.65 | WSW | 0 | 0.15 |
| 18 | 02/13 | 07:00 | 32 | 32 | 100 | 29.66 | SW | 3 | 0.18 |
| 19 | 02/13 | 06:00 | 32 | 32 | 100 | 29.68 | NNW | 2 | 0.15 |
| 20 | 02/13 | 05:00 | 31 | 31 | 100 | 29.73 | WNW | 0 | 0.07 |
| 21 | 02/13 | 04:00 | 31 | 31 | 100 | 29.76 | ENE | 2 | 0.04 |
| 22 | 02/13 | 03:00 | 31 | 31 | 100 | 29.82 | ESE | 2 | 0.14 |
| 23 | 02/13 | 02:00 | 30 | 30 | 100 | 29.85 | NE | 3 | 0.06 |
| 24 | 02/13 | 01:00 | 29 | 28 | 100 | 29.90 | NE | 3 | 0.11 |